Time;durP1;ratioP1;P1;durP2;ratioP2;P2;SDS_P1;SDS_P2;PMS_P1;PMS_P2;Temp;Humidity;BMP_temperature;BMP_pressure;BME280_temperature;BME280_humidity;BME280_pressure;Samples;Min_cycle;Max_cycle;Signal;HPM_P1;HPM_P2
2022/10/26 00:01:06;;;;;;;16.55;10.38;;;;;;;;;;5110791;28;20495;-78
2022/10/26 00:03:34;;;;;;;18.58;10.85;;;;;;;;;;5114092;27;20137;-77
2022/10/26 00:06:07;;;;;;;18.15;10.48;;;;;;;;;;5091902;28;20039;-78
2022/10/26 00:08:33;;;;;;;18.30;10.60;;;;;;;;;;5075047;28;1126186;-78
2022/10/26 00:11:00;;;;;;;16.70;10.13;;;;;;;;;;5114561;28;20047;-78
2022/10/26 00:13:26;;;;;;;17.60;9.35;;;;;;;;;;5114201;28;20088;-78
2022/10/26 00:15:52;;;;;;;18.13;10.15;;;;;;;;;;5135893;27;20400;-78
2022/10/26 00:18:18;;;;;;;18.27;10.07;;;;;;;;;;5114217;28;20054;-77
2022/10/26 00:20:44;;;;;;;18.00;9.93;;;;;;;;;;5093902;28;20043;-78
2022/10/26 00:23:10;;;;;;;19.50;10.30;;;;;;;;;;5098808;28;20492;-77
2022/10/26 00:25:36;;;;;;;17.38;10.30;;;;;;;;;;5119481;27;20732;-77
2022/10/26 00:28:03;;;;;;;17.48;10.02;;;;;;;;;;5115464;28;20430;-77
2022/10/26 00:30:29;;;;;;;17.15;10.18;;;;;;;;;;5092656;28;20047;-78
2022/10/26 00:32:55;;;;;;;19.60;10.00;;;;;;;;;;5113723;28;20116;-78
2022/10/26 00:35:21;;;;;;;22.67;10.02;;;;;;;;;;5122356;27;20043;-78
2022/10/26 00:37:47;;;;;;;19.80;10.02;;;;;;;;;;5122614;28;20067;-70
2022/10/26 00:40:13;;;;;;;20.77;10.95;;;;;;;;;;5115224;27;20035;-70
2022/10/26 00:42:39;;;;;;;20.42;9.90;;;;;;;;;;5134930;27;20039;-71
2022/10/26 00:45:18;;;;;;;19.50;10.70;;;;;;;;;;5114862;27;20043;-70
2022/10/26 00:47:46;;;;;;;19.75;10.95;;;;;;;;;;5102126;27;20403;-70
2022/10/26 00:50:17;;;;;;;23.90;11.30;;;;;;;;;;5117003;27;20039;-70
2022/10/26 00:52:44;;;;;;;18.70;10.15;;;;;;;;;;5121823;27;20031;-70
2022/10/26 00:55:10;;;;;;;19.27;9.80;;;;;;;;;;5117475;27;20031;-70
2022/10/26 00:57:37;;;;;;;22.15;10.60;;;;;;;;;;5119747;27;20031;-70
2022/10/26 01:00:04;;;;;;;22.75;10.45;;;;;;;;;;5099993;27;20042;-70
2022/10/26 01:02:30;;;;;;;20.10;9.77;;;;;;;;;;5100911;27;20475;-78
2022/10/26 01:04:56;;;;;;;20.45;10.13;;;;;;;;;;5083472;27;20480;-77
2022/10/26 01:07:23;;;;;;;21.35;10.30;;;;;;;;;;5136067;27;20051;-77
2022/10/26 01:09:50;;;;;;;18.50;10.02;;;;;;;;;;5123585;27;20039;-77
2022/10/26 01:12:16;;;;;;;17.02;9.00;;;;;;;;;;5130766;27;20035;-77
2022/10/26 01:14:43;;;;;;;18.92;10.48;;;;;;;;;;5123197;27;20121;-78
2022/10/26 01:17:09;;;;;;;19.95;9.63;;;;;;;;;;5119963;27;20035;-77
2022/10/26 01:19:46;;;;;;;17.80;9.82;;;;;;;;;;5119799;27;20043;-77
2022/10/26 01:22:20;;;;;;;17.75;10.05;;;;;;;;;;5122144;27;20552;-76
2022/10/26 01:24:55;;;;;;;19.02;10.50;;;;;;;;;;5116561;27;20039;-77
2022/10/26 01:27:21;;;;;;;16.98;9.82;;;;;;;;;;5117811;27;20066;-77
2022/10/26 01:30:05;;;;;;;18.15;10.45;;;;;;;;;;5123138;27;20495;-77
2022/10/26 01:32:32;;;;;;;18.27;10.45;;;;;;;;;;5121780;27;20035;-76
2022/10/26 01:35:14;;;;;;;19.80;10.13;;;;;;;;;;5103854;27;20034;-77
2022/10/26 01:37:46;;;;;;;16.23;9.93;;;;;;;;;;5118650;27;20035;-76
2022/10/26 01:40:20;;;;;;;17.63;9.80;;;;;;;;;;5092420;27;20091;-76
2022/10/26 01:42:48;;;;;;;20.17;10.23;;;;;;;;;;5133214;27;20379;-76
2022/10/26 01:45:14;;;;;;;20.38;9.38;;;;;;;;;;5110155;27;20634;-76
2022/10/26 01:47:41;;;;;;;20.65;10.93;;;;;;;;;;5128332;27;20491;-77
2022/10/26 01:50:08;;;;;;;19.33;10.02;;;;;;;;;;5100190;27;20027;-77
2022/10/26 01:52:34;;;;;;;16.65;10.00;;;;;;;;;;5117695;27;20082;-77
2022/10/26 01:55:01;;;;;;;27.27;10.50;;;;;;;;;;5115921;27;20055;-76
2022/10/26 01:57:27;;;;;;;21.50;10.55;;;;;;;;;;5098214;27;20071;-76
2022/10/26 01:59:53;;;;;;;20.00;10.13;;;;;;;;;;5100756;27;20983;-77
2022/10/26 02:02:38;;;;;;;21.02;10.50;;;;;;;;;;5114932;27;20050;-76
2022/10/26 02:05:13;;;;;;;17.60;10.70;;;;;;;;;;5135463;27;20043;-77
2022/10/26 02:07:58;;;;;;;19.90;10.25;;;;;;;;;;5116370;27;20055;-76
2022/10/26 02:10:24;;;;;;;19.70;11.35;;;;;;;;;;5119724;27;20043;-76
2022/10/26 02:13:03;;;;;;;22.52;11.63;;;;;;;;;;5112738;27;20062;-77
2022/10/26 02:15:40;;;;;;;21.48;11.25;;;;;;;;;;5111311;27;20039;-76
2022/10/26 02:18:13;;;;;;;22.63;11.50;;;;;;;;;;5105891;27;20050;-76
2022/10/26 02:20:42;;;;;;;18.63;10.93;;;;;;;;;;5125725;27;20469;-76
2022/10/26 02:23:09;;;;;;;20.45;11.73;;;;;;;;;;5116603;27;20043;-77
2022/10/26 02:25:37;;;;;;;27.42;12.23;;;;;;;;;;5115839;27;20039;-76
2022/10/26 02:28:06;;;;;;;22.50;11.27;;;;;;;;;;5142398;27;20038;-77
2022/10/26 02:30:33;;;;;;;22.08;11.88;;;;;;;;;;5148002;27;20104;-77
2022/10/26 02:33:00;;;;;;;21.15;12.07;;;;;;;;;;5106328;28;20046;-77
2022/10/26 02:35:30;;;;;;;23.05;12.38;;;;;;;;;;5111963;27;20396;-77
2022/10/26 02:37:58;;;;;;;21.02;12.40;;;;;;;;;;5115371;27;20039;-77
2022/10/26 02:40:25;;;;;;;21.90;13.30;;;;;;;;;;5137180;27;20050;-77
2022/10/26 02:42:52;;;;;;;23.42;13.45;;;;;;;;;;5115624;27;20045;-76
2022/10/26 02:45:20;;;;;;;25.65;13.85;;;;;;;;;;5115561;27;20053;-77
2022/10/26 02:47:47;;;;;;;22.45;14.02;;;;;;;;;;5122918;27;20038;-77
2022/10/26 02:50:13;;;;;;;26.70;13.77;;;;;;;;;;5117888;27;20039;-76
2022/10/26 02:52:49;;;;;;;25.33;14.27;;;;;;;;;;5115154;27;20088;-78
2022/10/26 02:55:23;;;;;;;25.55;14.55;;;;;;;;;;5115386;27;20441;-77
2022/10/26 02:57:54;;;;;;;24.10;14.25;;;;;;;;;;5136920;27;20039;-77
2022/10/26 03:00:20;;;;;;;25.15;14.68;;;;;;;;;;5117039;27;20053;-77
2022/10/26 03:02:52;;;;;;;24.20;14.02;;;;;;;;;;5138448;27;20043;-77
2022/10/26 03:05:20;;;;;;;26.17;13.70;;;;;;;;;;5133231;27;20035;-78
2022/10/26 03:07:46;;;;;;;24.40;14.10;;;;;;;;;;5083716;27;20035;-76
2022/10/26 03:10:12;;;;;;;25.60;13.50;;;;;;;;;;5097556;27;20046;-77
2022/10/26 03:12:39;;;;;;;22.48;14.32;;;;;;;;;;5139917;27;20167;-77
2022/10/26 03:15:05;;;;;;;22.25;14.10;;;;;;;;;;5127282;27;20035;-77
2022/10/26 03:17:31;;;;;;;26.48;14.52;;;;;;;;;;5099197;28;20514;-77
2022/10/26 03:19:57;;;;;;;26.50;14.70;;;;;;;;;;5096902;27;20043;-77
2022/10/26 03:22:23;;;;;;;25.92;13.98;;;;;;;;;;5116981;27;20043;-77
2022/10/26 03:24:49;;;;;;;25.45;13.77;;;;;;;;;;5114808;27;20104;-77
2022/10/26 03:27:15;;;;;;;27.33;14.35;;;;;;;;;;5100051;27;20031;-77
2022/10/26 03:29:41;;;;;;;26.10;13.95;;;;;;;;;;5115501;27;20050;-77
2022/10/26 03:32:08;;;;;;;26.15;13.93;;;;;;;;;;5110667;28;20046;-77
2022/10/26 03:34:34;;;;;;;28.23;14.27;;;;;;;;;;5111479;27;20039;-77
2022/10/26 03:37:00;;;;;;;25.23;14.77;;;;;;;;;;5114223;28;20154;-77
2022/10/26 03:39:26;;;;;;;24.27;14.43;;;;;;;;;;5095794;28;20502;-77
2022/10/26 03:41:52;;;;;;;24.92;14.95;;;;;;;;;;5093429;28;20489;-77
2022/10/26 03:44:18;;;;;;;26.08;14.80;;;;;;;;;;5124505;28;20064;-77
2022/10/26 03:46:44;;;;;;;24.30;15.15;;;;;;;;;;5120490;27;20047;-77
2022/10/26 03:49:10;;;;;;;25.23;14.85;;;;;;;;;;5118039;27;20107;-71
2022/10/26 03:51:36;;;;;;;26.98;15.93;;;;;;;;;;5132603;27;20034;-70
2022/10/26 03:54:02;;;;;;;23.40;15.45;;;;;;;;;;5105870;27;20471;-70
2022/10/26 03:56:28;;;;;;;28.00;15.38;;;;;;;;;;5129267;27;20035;-70
2022/10/26 03:58:54;;;;;;;27.45;14.95;;;;;;;;;;5114357;28;20125;-70
2022/10/26 04:01:20;;;;;;;27.20;15.07;;;;;;;;;;5115464;27;20043;-70
2022/10/26 04:03:46;;;;;;;30.33;16.08;;;;;;;;;;5122970;27;20553;-70
2022/10/26 04:06:12;;;;;;;28.45;15.18;;;;;;;;;;5112997;28;20035;-70
2022/10/26 04:08:38;;;;;;;26.73;15.73;;;;;;;;;;5121385;28;20047;-70
2022/10/26 04:11:05;;;;;;;26.63;15.30;;;;;;;;;;5118082;28;20534;-70
2022/10/26 04:13:31;;;;;;;23.88;15.23;;;;;;;;;;5115391;28;20039;-70
2022/10/26 04:15:57;;;;;;;25.27;14.70;;;;;;;;;;5112778;27;20051;-70
2022/10/26 04:18:23;;;;;;;25.45;15.23;;;;;;;;;;5078014;27;20048;-71
2022/10/26 04:20:49;;;;;;;25.45;15.13;;;;;;;;;;5107954;27;20086;-70
2022/10/26 04:23:16;;;;;;;24.83;15.18;;;;;;;;;;5098062;27;20122;-70
2022/10/26 04:25:42;;;;;;;25.70;15.57;;;;;;;;;;5121575;27;20074;-70
2022/10/26 04:28:09;;;;;;;27.27;15.38;;;;;;;;;;5117715;27;20511;-69
2022/10/26 04:30:36;;;;;;;23.20;13.90;;;;;;;;;;5122216;27;20093;-70
2022/10/26 04:33:02;;;;;;;22.77;13.95;;;;;;;;;;5118786;27;20143;-70
2022/10/26 04:35:28;;;;;;;25.98;15.18;;;;;;;;;;5105394;27;20042;-70
2022/10/26 04:37:58;;;;;;;25.27;14.82;;;;;;;;;;5110836;27;20042;-70
2022/10/26 04:40:25;;;;;;;27.30;14.32;;;;;;;;;;5097884;27;20047;-70
2022/10/26 04:42:51;;;;;;;22.73;14.93;;;;;;;;;;5112536;27;20057;-70
2022/10/26 04:45:17;;;;;;;22.50;13.80;;;;;;;;;;5103403;27;20044;-70
2022/10/26 04:47:43;;;;;;;25.70;13.77;;;;;;;;;;5118854;27;20337;-71
2022/10/26 04:50:10;;;;;;;24.58;14.18;;;;;;;;;;5128671;27;20037;-70
2022/10/26 04:52:36;;;;;;;23.10;13.73;;;;;;;;;;5123516;27;20035;-70
2022/10/26 04:55:04;;;;;;;24.63;13.07;;;;;;;;;;5135875;27;20045;-70
2022/10/26 04:57:32;;;;;;;25.20;13.00;;;;;;;;;;5122172;27;20078;-70
2022/10/26 04:59:58;;;;;;;24.48;12.63;;;;;;;;;;5122601;27;20093;-70
2022/10/26 05:02:24;;;;;;;22.08;13.57;;;;;;;;;;5121402;27;20065;-71
2022/10/26 05:04:50;;;;;;;23.30;13.45;;;;;;;;;;5106472;27;20074;-71
2022/10/26 05:07:16;;;;;;;23.17;13.93;;;;;;;;;;5119982;27;20046;-70
2022/10/26 05:09:42;;;;;;;22.50;13.75;;;;;;;;;;5099461;27;20143;-71
2022/10/26 05:12:08;;;;;;;21.40;12.82;;;;;;;;;;5121692;27;20568;-71
2022/10/26 05:14:34;;;;;;;26.38;13.68;;;;;;;;;;5111144;27;20035;-77
2022/10/26 05:17:01;;;;;;;22.42;13.60;;;;;;;;;;5109646;27;20054;-77
2022/10/26 05:19:27;;;;;;;29.75;13.98;;;;;;;;;;5101139;27;20445;-77
2022/10/26 05:21:53;;;;;;;22.65;12.65;;;;;;;;;;5107783;28;20035;-77
2022/10/26 05:24:19;;;;;;;19.77;13.07;;;;;;;;;;5106937;27;20445;-77
2022/10/26 05:26:45;;;;;;;21.55;12.90;;;;;;;;;;5117346;27;20391;-77
2022/10/26 05:29:11;;;;;;;22.15;12.60;;;;;;;;;;5135451;27;20039;-77
2022/10/26 05:31:37;;;;;;;20.45;12.35;;;;;;;;;;5120141;27;20057;-76
2022/10/26 05:34:03;;;;;;;20.63;12.05;;;;;;;;;;5102509;27;20066;-75
2022/10/26 05:36:29;;;;;;;20.48;11.95;;;;;;;;;;5119255;27;20046;-77
2022/10/26 05:38:59;;;;;;;21.25;12.65;;;;;;;;;;5137780;27;20031;-77
2022/10/26 05:41:25;;;;;;;22.98;12.38;;;;;;;;;;5120365;27;20046;-77
2022/10/26 05:43:51;;;;;;;23.45;13.25;;;;;;;;;;5127017;27;20046;-77
2022/10/26 05:46:17;;;;;;;19.67;12.57;;;;;;;;;;5123730;27;20569;-77
2022/10/26 05:48:43;;;;;;;20.33;12.18;;;;;;;;;;5127031;27;20039;-77
2022/10/26 05:51:11;;;;;;;19.92;12.43;;;;;;;;;;5127944;27;20039;-77
2022/10/26 05:53:37;;;;;;;19.73;12.70;;;;;;;;;;5116318;27;20035;-77
2022/10/26 05:56:13;;;;;;;19.63;12.25;;;;;;;;;;5121957;27;20087;-76
2022/10/26 05:58:39;;;;;;;22.08;11.70;;;;;;;;;;5122145;27;20035;-77
2022/10/26 06:01:10;;;;;;;20.42;11.57;;;;;;;;;;5093945;27;20093;-76
2022/10/26 06:03:51;;;;;;;20.90;12.23;;;;;;;;;;5088279;28;20039;-76
2022/10/26 06:06:17;;;;;;;22.02;11.98;;;;;;;;;;5101257;27;20083;-77
2022/10/26 06:08:44;;;;;;;19.67;11.35;;;;;;;;;;5116049;27;20600;-76
2022/10/26 06:11:10;;;;;;;18.08;11.05;;;;;;;;;;5097860;28;20100;-76
2022/10/26 06:13:36;;;;;;;23.33;11.80;;;;;;;;;;5100990;27;20118;-76
2022/10/26 06:16:14;;;;;;;18.70;12.10;;;;;;;;;;5116500;27;20054;-77
2022/10/26 06:18:50;;;;;;;18.33;10.90;;;;;;;;;;5109431;27;20047;-76
2022/10/26 06:21:16;;;;;;;20.27;11.43;;;;;;;;;;5124153;27;20489;-77
2022/10/26 06:23:51;;;;;;;18.92;11.27;;;;;;;;;;5098680;27;20039;-77
2022/10/26 06:26:24;;;;;;;19.20;11.50;;;;;;;;;;5112796;27;20064;-77
2022/10/26 06:29:02;;;;;;;23.95;11.65;;;;;;;;;;5098510;27;20035;-76
2022/10/26 06:31:28;;;;;;;21.33;11.75;;;;;;;;;;5098610;27;20031;-77
2022/10/26 06:33:57;;;;;;;20.08;10.80;;;;;;;;;;5123036;27;20109;-76
2022/10/26 06:36:26;;;;;;;18.83;11.00;;;;;;;;;;5133848;27;20039;-77
2022/10/26 06:39:01;;;;;;;20.95;10.65;;;;;;;;;;5116564;27;20407;-77
2022/10/26 06:41:27;;;;;;;19.23;9.90;;;;;;;;;;5121703;27;20043;-77
2022/10/26 06:43:53;;;;;;;18.23;10.68;;;;;;;;;;5092338;28;20035;-76
2022/10/26 06:46:20;;;;;;;17.10;10.70;;;;;;;;;;5112444;27;20052;-77
2022/10/26 06:48:49;;;;;;;17.38;10.00;;;;;;;;;;5114398;27;20043;-76
2022/10/26 06:51:16;;;;;;;16.20;10.05;;;;;;;;;;5121205;27;20463;-77
2022/10/26 06:53:47;;;;;;;20.67;10.30;;;;;;;;;;5106343;27;20089;-77
2022/10/26 06:56:14;;;;;;;20.98;10.55;;;;;;;;;;5119112;27;20035;-77
2022/10/26 06:58:40;;;;;;;19.00;9.70;;;;;;;;;;5122262;27;20461;-76
2022/10/26 07:01:06;;;;;;;14.68;9.70;;;;;;;;;;5122844;27;20081;-77
2022/10/26 07:03:32;;;;;;;21.10;9.25;;;;;;;;;;5100462;27;20386;-77
2022/10/26 07:05:59;;;;;;;16.90;9.88;;;;;;;;;;5105538;27;20035;-76
2022/10/26 07:08:25;;;;;;;17.20;9.18;;;;;;;;;;5091901;27;20047;-76
2022/10/26 07:10:51;;;;;;;15.63;9.25;;;;;;;;;;5109868;27;20055;-76
2022/10/26 07:13:17;;;;;;;15.63;8.90;;;;;;;;;;5104179;27;20547;-77
2022/10/26 07:15:43;;;;;;;14.98;8.73;;;;;;;;;;5126502;27;20555;-78
2022/10/26 07:18:10;;;;;;;13.75;8.77;;;;;;;;;;5109530;27;20043;-77
2022/10/26 07:20:37;;;;;;;19.58;8.95;;;;;;;;;;5112728;27;20251;-76
2022/10/26 07:23:05;;;;;;;15.07;8.82;;;;;;;;;;5121218;27;20083;-76
2022/10/26 07:25:32;;;;;;;16.67;8.15;;;;;;;;;;5081578;28;20043;-77
2022/10/26 07:27:58;;;;;;;14.52;8.27;;;;;;;;;;5100475;28;20043;-77
2022/10/26 07:30:28;;;;;;;16.48;8.38;;;;;;;;;;5093110;28;20120;-77
2022/10/26 07:33:05;;;;;;;14.98;8.55;;;;;;;;;;5112145;28;20031;-77
2022/10/26 07:35:32;;;;;;;14.00;7.65;;;;;;;;;;5098393;28;20054;-76
2022/10/26 07:37:58;;;;;;;16.95;8.25;;;;;;;;;;5107789;28;20394;-77
2022/10/26 07:40:25;;;;;;;14.25;7.05;;;;;;;;;;5085947;28;20047;-77
2022/10/26 07:42:51;;;;;;;18.45;7.57;;;;;;;;;;5107392;28;20074;-77
2022/10/26 07:45:18;;;;;;;11.48;7.00;;;;;;;;;;5113980;28;20472;-76
2022/10/26 07:47:45;;;;;;;14.38;7.70;;;;;;;;;;5110707;28;20063;-78
2022/10/26 07:50:11;;;;;;;14.05;7.15;;;;;;;;;;5096562;27;20096;-78
2022/10/26 07:52:40;;;;;;;14.65;7.57;;;;;;;;;;5107007;27;20035;-78
2022/10/26 07:55:06;;;;;;;10.85;6.95;;;;;;;;;;5102295;28;20035;-78
2022/10/26 07:57:33;;;;;;;18.10;7.97;;;;;;;;;;5089779;27;20048;-79
2022/10/26 07:59:59;;;;;;;14.95;6.90;;;;;;;;;;5093707;27;20039;-78
2022/10/26 08:02:25;;;;;;;12.70;7.50;;;;;;;;;;5111931;27;20442;-78
2022/10/26 08:04:51;;;;;;;11.32;7.20;;;;;;;;;;5102244;27;20511;-78
2022/10/26 08:07:18;;;;;;;10.63;6.70;;;;;;;;;;5100953;27;20034;-78
2022/10/26 08:09:44;;;;;;;12.88;6.60;;;;;;;;;;5090329;27;20043;-78
2022/10/26 08:12:12;;;;;;;15.30;5.90;;;;;;;;;;5111790;27;20405;-78
2022/10/26 08:14:38;;;;;;;9.52;6.15;;;;;;;;;;5132509;27;20399;-78
2022/10/26 08:17:04;;;;;;;12.02;5.70;;;;;;;;;;5102006;28;20077;-78
2022/10/26 08:19:30;;;;;;;10.75;5.07;;;;;;;;;;5090415;27;20047;-78
2022/10/26 08:21:56;;;;;;;10.43;5.10;;;;;;;;;;5119341;27;20072;-77
2022/10/26 08:24:23;;;;;;;10.50;5.18;;;;;;;;;;5119424;27;20085;-78
2022/10/26 08:26:49;;;;;;;10.52;5.13;;;;;;;;;;5100694;27;20383;-78
2022/10/26 08:29:15;;;;;;;9.50;4.63;;;;;;;;;;5144812;27;20031;-78
2022/10/26 08:31:41;;;;;;;6.85;4.50;;;;;;;;;;5118589;27;20609;-77
2022/10/26 08:34:07;;;;;;;7.43;4.47;;;;;;;;;;5120981;27;20391;-78
2022/10/26 08:36:33;;;;;;;11.20;4.38;;;;;;;;;;5124740;27;20495;-78
2022/10/26 08:38:59;;;;;;;10.25;4.28;;;;;;;;;;5122107;27;20041;-78
2022/10/26 08:41:37;;;;;;;8.40;4.18;;;;;;;;;;5127637;27;20039;-78
2022/10/26 08:44:27;;;;;;;7.40;3.95;;;;;;;;;;5116629;27;20036;-80
2022/10/26 08:47:06;;;;;;;8.77;4.40;;;;;;;;;;5113944;27;20058;-80
2022/10/26 08:49:39;;;;;;;9.65;4.10;;;;;;;;;;5149026;27;20081;-79
2022/10/26 08:52:06;;;;;;;6.82;3.90;;;;;;;;;;5118699;27;20039;-78
2022/10/26 08:54:35;;;;;;;7.47;3.85;;;;;;;;;;5122895;27;20040;-79
2022/10/26 08:57:04;;;;;;;11.80;4.00;;;;;;;;;;5123678;27;20051;-79
2022/10/26 08:59:34;;;;;;;9.20;3.80;;;;;;;;;;5126793;27;20035;-79
2022/10/26 09:02:01;;;;;;;7.40;3.50;;;;;;;;;;5118246;27;20038;-79
2022/10/26 09:04:28;;;;;;;9.18;3.47;;;;;;;;;;5136941;27;20091;-79
2022/10/26 09:06:56;;;;;;;5.68;3.40;;;;;;;;;;5120673;27;20038;-79
2022/10/26 09:09:42;;;;;;;6.85;3.58;;;;;;;;;;5135293;27;20093;-79
2022/10/26 09:12:19;;;;;;;6.97;3.60;;;;;;;;;;5067260;27;20491;-79
2022/10/26 09:15:05;;;;;;;6.43;3.17;;;;;;;;;;5117797;27;20039;-79
2022/10/26 09:17:50;;;;;;;6.97;3.53;;;;;;;;;;5080901;27;20055;-79
2022/10/26 09:20:16;;;;;;;9.63;3.88;;;;;;;;;;5114679;27;20035;-79
2022/10/26 09:22:47;;;;;;;9.30;3.60;;;;;;;;;;5115210;27;20047;-79
2022/10/26 09:25:18;;;;;;;7.18;3.70;;;;;;;;;;5142071;27;20035;-79
2022/10/26 09:27:46;;;;;;;7.82;3.83;;;;;;;;;;5107738;27;20035;-79
2022/10/26 09:30:14;;;;;;;7.68;3.45;;;;;;;;;;5117295;27;20034;-79
2022/10/26 09:32:47;;;;;;;10.30;3.15;;;;;;;;;;5130031;27;20031;-78
2022/10/26 09:35:16;;;;;;;7.47;3.30;;;;;;;;;;5100102;27;20391;-78
2022/10/26 09:38:06;;;;;;;6.82;2.90;;;;;;;;;;5117026;27;20118;-79
2022/10/26 09:40:52;;;;;;;6.90;2.75;;;;;;;;;;5103104;27;20073;-77
2022/10/26 09:43:23;;;;;;;6.25;2.65;;;;;;;;;;5098125;27;20039;-79
2022/10/26 09:45:51;;;;;;;6.15;2.60;;;;;;;;;;5110135;27;20040;-77
2022/10/26 09:48:43;;;;;;;5.75;2.70;;;;;;;;;;5100645;27;20527;-81
2022/10/26 09:51:10;;;;;;;7.57;2.70;;;;;;;;;;5109055;27;20049;-80
2022/10/26 09:53:36;;;;;;;6.63;2.63;;;;;;;;;;5115852;27;20039;-79
2022/10/26 09:56:06;;;;;;;5.28;2.70;;;;;;;;;;5106955;27;20039;-80
2022/10/26 09:58:36;;;;;;;6.90;2.72;;;;;;;;;;5108083;27;20043;-77
2022/10/26 10:01:02;;;;;;;5.05;2.80;;;;;;;;;;5122237;27;20039;-81
2022/10/26 10:03:29;;;;;;;6.78;2.60;;;;;;;;;;5098488;28;20040;-81
2022/10/26 10:06:14;;;;;;;5.88;2.78;;;;;;;;;;5107396;27;20049;-74
2022/10/26 10:08:40;;;;;;;6.57;2.80;;;;;;;;;;5104535;27;20703;-81
2022/10/26 10:11:08;;;;;;;7.18;2.60;;;;;;;;;;5092274;28;20064;-81
2022/10/26 10:13:38;;;;;;;7.65;2.80;;;;;;;;;;5109620;28;20039;-81
2022/10/26 10:16:05;;;;;;;7.00;2.40;;;;;;;;;;5102502;28;20095;-81
2022/10/26 10:18:31;;;;;;;5.38;2.20;;;;;;;;;;5106350;27;20040;-82
2022/10/26 10:20:58;;;;;;;7.25;2.60;;;;;;;;;;5097938;28;20054;-82
2022/10/26 10:23:35;;;;;;;4.93;2.10;;;;;;;;;;5091535;28;20043;-82
2022/10/26 10:26:06;;;;;;;8.07;2.30;;;;;;;;;;5112562;28;20054;-81
2022/10/26 10:28:32;;;;;;;5.82;2.50;;;;;;;;;;5109635;27;20038;-81
2022/10/26 10:31:01;;;;;;;5.13;2.40;;;;;;;;;;5098701;27;20476;-81
2022/10/26 10:33:33;;;;;;;5.82;2.42;;;;;;;;;;5111894;27;20039;-81
2022/10/26 10:36:00;;;;;;;7.78;2.65;;;;;;;;;;5114855;27;20047;-81
2022/10/26 10:38:26;;;;;;;9.27;2.75;;;;;;;;;;5113775;27;20043;-81
2022/10/26 10:40:54;;;;;;;5.90;2.40;;;;;;;;;;5107901;28;20047;-81
2022/10/26 10:43:20;;;;;;;9.27;2.95;;;;;;;;;;5111405;27;20113;-81
2022/10/26 10:45:48;;;;;;;6.43;2.35;;;;;;;;;;5099385;28;20042;-81
2022/10/26 10:48:16;;;;;;;8.63;2.97;;;;;;;;;;5117344;27;20130;-82
2022/10/26 10:50:51;;;;;;;6.65;2.25;;;;;;;;;;5121595;27;20067;-81
2022/10/26 10:53:22;;;;;;;5.18;2.25;;;;;;;;;;5115473;27;20089;-81
2022/10/26 10:55:55;;;;;;;7.80;2.25;;;;;;;;;;5109911;28;20051;-82
2022/10/26 10:58:28;;;;;;;3.58;1.90;;;;;;;;;;5113341;27;20047;-72
2022/10/26 11:00:55;;;;;;;4.43;2.10;;;;;;;;;;5110302;27;20401;-72
2022/10/26 11:03:28;;;;;;;5.97;2.30;;;;;;;;;;5095753;27;20095;-72
2022/10/26 11:06:11;;;;;;;6.25;2.40;;;;;;;;;;5108530;27;20458;-72
2022/10/26 11:08:40;;;;;;;5.57;2.47;;;;;;;;;;5105629;27;20044;-72
2022/10/26 11:11:06;;;;;;;9.50;2.10;;;;;;;;;;5118525;27;20034;-82
2022/10/26 11:13:51;;;;;;;6.90;2.30;;;;;;;;;;5105026;28;20058;-83
2022/10/26 11:16:22;;;;;;;6.93;2.58;;;;;;;;;;5100449;27;20036;-82
2022/10/26 11:18:52;;;;;;;7.35;2.38;;;;;;;;;;5093381;28;20036;-83
2022/10/26 11:21:24;;;;;;;7.10;2.25;;;;;;;;;;5092623;28;20038;-82
2022/10/26 11:23:54;;;;;;;4.47;1.80;;;;;;;;;;5096725;28;20084;-83
2022/10/26 11:26:24;;;;;;;6.60;1.90;;;;;;;;;;5110983;28;20047;-83
2022/10/26 11:28:53;;;;;;;5.88;2.20;;;;;;;;;;5109452;28;20047;-83
2022/10/26 11:31:39;;;;;;;5.00;2.20;;;;;;;;;;5110006;28;20040;-85
2022/10/26 11:34:21;;;;;;;3.58;1.92;;;;;;;;;;5110859;28;20039;-83
2022/10/26 11:36:50;;;;;;;7.40;2.15;;;;;;;;;;5106393;28;20480;-83
2022/10/26 11:39:28;;;;;;;6.80;2.28;;;;;;;;;;5104443;28;20123;-83
2022/10/26 11:42:06;;;;;;;5.05;2.15;;;;;;;;;;5109941;28;20039;-83
2022/10/26 11:44:38;;;;;;;7.20;2.22;;;;;;;;;;5111018;28;20123;-83
2022/10/26 11:47:09;;;;;;;6.68;2.45;;;;;;;;;;5096006;28;20036;-83
2022/10/26 11:49:47;;;;;;;6.78;2.70;;;;;;;;;;5082017;28;20124;-82
2022/10/26 11:52:16;;;;;;;6.70;2.60;;;;;;;;;;5118786;28;20031;-83
2022/10/26 11:54:55;;;;;;;9.02;3.13;;;;;;;;;;5111102;28;20216;-83
2022/10/26 11:57:22;;;;;;;7.65;2.80;;;;;;;;;;5106873;28;20047;-82
2022/10/26 11:59:58;;;;;;;7.60;3.00;;;;;;;;;;5085695;28;20036;-82
2022/10/26 12:02:24;;;;;;;;;;;;;;;;;;5110532;28;20523;-83
2022/10/26 12:04:56;;;;;;;7.63;3.20;;;;;;;;;;5110996;28;20384;-83
2022/10/26 12:07:48;;;;;;;9.05;3.15;;;;;;;;;;5094343;28;20429;-83
2022/10/26 12:10:34;;;;;;;7.20;3.10;;;;;;;;;;5103872;28;20047;-83
2022/10/26 12:13:05;;;;;;;7.38;3.20;;;;;;;;;;5108111;28;20042;-83
2022/10/26 12:15:34;;;;;;;10.20;3.60;;;;;;;;;;5091574;28;20048;-72
2022/10/26 12:18:19;;;;;;;9.43;3.70;;;;;;;;;;5090157;28;20051;-73
2022/10/26 12:20:45;;;;;;;9.13;3.20;;;;;;;;;;5090066;28;20036;-72
2022/10/26 12:23:12;;;;;;;8.43;3.80;;;;;;;;;;5092356;28;20134;-73
2022/10/26 12:25:38;;;;;;;7.32;3.83;;;;;;;;;;5098665;28;20040;-72
2022/10/26 12:28:04;;;;;;;8.40;3.60;;;;;;;;;;5109977;28;20480;-71
2022/10/26 12:30:31;;;;;;;12.90;4.10;;;;;;;;;;5105109;28;20059;-72
2022/10/26 12:32:59;;;;;;;9.45;3.85;;;;;;;;;;5118582;28;20035;-72
2022/10/26 12:35:34;;;;;;;8.13;4.45;;;;;;;;;;5106166;28;20119;-72
2022/10/26 12:38:02;;;;;;;9.80;3.92;;;;;;;;;;5090061;28;20039;-72
2022/10/26 12:40:33;;;;;;;8.25;3.83;;;;;;;;;;5093324;28;20123;-82
2022/10/26 12:43:15;;;;;;;6.57;4.18;;;;;;;;;;5103019;27;20035;-82
2022/10/26 12:45:41;;;;;;;9.93;4.05;;;;;;;;;;5097501;27;20515;-71
2022/10/26 12:48:20;;;;;;;9.45;3.65;;;;;;;;;;5096341;28;20028;-71
2022/10/26 12:50:46;;;;;;;7.40;3.60;;;;;;;;;;5115090;27;20392;-71
2022/10/26 12:53:14;;;;;;;8.68;3.78;;;;;;;;;;5099520;27;20042;-71
2022/10/26 12:55:49;;;;;;;10.18;4.05;;;;;;;;;;5093005;28;20522;-71
2022/10/26 12:58:34;;;;;;;8.10;3.50;;;;;;;;;;5093769;28;20040;-71
2022/10/26 13:01:00;;;;;;;9.07;3.70;;;;;;;;;;5094359;28;20136;-71
2022/10/26 13:03:26;;;;;;;7.05;3.75;;;;;;;;;;5100907;27;20042;-71
2022/10/26 13:05:55;;;;;;;11.88;4.22;;;;;;;;;;5110505;27;20047;-81
2022/10/26 13:08:21;;;;;;;7.88;3.70;;;;;;;;;;5087499;28;20063;-81
2022/10/26 13:11:02;;;;;;;8.57;4.70;;;;;;;;;;5093304;28;20535;-81
2022/10/26 13:13:30;;;;;;;10.50;4.13;;;;;;;;;;5093720;28;20035;-81
2022/10/26 13:15:56;;;;;;;10.18;4.55;;;;;;;;;;5082488;28;20040;-80
2022/10/26 13:18:23;;;;;;;12.30;4.90;;;;;;;;;;5097730;28;20507;-80
2022/10/26 13:20:52;;;;;;;8.45;4.43;;;;;;;;;;5093004;28;20097;-80
2022/10/26 13:23:25;;;;;;;9.25;5.38;;;;;;;;;;5095984;27;20036;-79
2022/10/26 13:26:01;;;;;;;7.53;5.20;;;;;;;;;;5115312;27;20051;-79
2022/10/26 13:28:36;;;;;;;15.38;6.57;;;;;;;;;;5113919;28;20039;-79
2022/10/26 13:31:03;;;;;;;10.00;6.65;;;;;;;;;;5117827;27;20039;-79
2022/10/26 13:33:37;;;;;;;9.45;6.93;;;;;;;;;;5113793;27;20040;-79
2022/10/26 13:36:10;;;;;;;10.07;7.60;;;;;;;;;;5103781;28;20040;-79
2022/10/26 13:38:37;;;;;;;11.13;8.00;;;;;;;;;;5106557;28;20067;-79
2022/10/26 13:41:07;;;;;;;11.85;7.75;;;;;;;;;;5105865;28;20043;-79
2022/10/26 13:43:36;;;;;;;10.82;8.07;;;;;;;;;;5112981;27;20066;-79
2022/10/26 13:46:03;;;;;;;12.80;8.27;;;;;;;;;;5094011;28;20044;-80
2022/10/26 13:48:37;;;;;;;12.27;8.52;;;;;;;;;;5091590;28;20040;-80
2022/10/26 13:51:10;;;;;;;11.52;9.10;;;;;;;;;;5092576;28;20526;-79
2022/10/26 13:53:43;;;;;;;14.18;10.10;;;;;;;;;;5093664;28;20036;-79
2022/10/26 13:56:21;;;;;;;14.15;10.20;;;;;;;;;;5099144;28;20508;-77
2022/10/26 13:58:53;;;;;;;14.60;9.70;;;;;;;;;;5081393;28;20500;-77
2022/10/26 14:01:23;;;;;;;15.18;10.38;;;;;;;;;;5109666;28;20039;-77
2022/10/26 14:03:50;;;;;;;15.07;9.77;;;;;;;;;;5117036;27;20039;-76
2022/10/26 14:06:41;;;;;;;14.68;9.90;;;;;;;;;;5098265;28;20054;-75
2022/10/26 14:09:19;;;;;;;14.48;9.88;;;;;;;;;;5110572;27;20047;-76
2022/10/26 14:11:50;;;;;;;13.10;9.15;;;;;;;;;;5091494;28;20051;-70
2022/10/26 14:14:19;;;;;;;14.60;8.65;;;;;;;;;;5126030;27;20035;-70
2022/10/26 14:16:46;;;;;;;10.73;7.57;;;;;;;;;;5128864;27;20040;-70
2022/10/26 14:19:21;;;;;;;15.07;8.25;;;;;;;;;;5113708;28;20096;-70
2022/10/26 14:21:49;;;;;;;9.00;7.17;;;;;;;;;;5116602;27;20058;-70
2022/10/26 14:24:41;;;;;;;9.60;7.03;;;;;;;;;;5115680;27;20031;-70
2022/10/26 14:27:18;;;;;;;11.65;6.55;;;;;;;;;;5120606;27;20511;-70
2022/10/26 14:29:44;;;;;;;11.00;6.28;;;;;;;;;;5119041;27;20061;-75
2022/10/26 14:32:34;;;;;;;10.73;6.53;;;;;;;;;;5126284;27;20078;-75
2022/10/26 14:35:00;;;;;;;14.63;7.90;;;;;;;;;;5095505;28;20048;-70
2022/10/26 14:37:33;;;;;;;14.40;5.93;;;;;;;;;;5091310;27;20384;-79
2022/10/26 14:39:59;;;;;;;10.07;5.78;;;;;;;;;;5112090;27;20074;-80
2022/10/26 14:42:28;;;;;;;9.23;6.82;;;;;;;;;;5110351;27;20039;-80